sensor_id;sensor_type;location;lat;lon;timestamp;pressure;altitude;pressure_sealevel;temperature;humidity
57572;BME280;44459;43.522;24.470;2022-12-20T00:01:18;102732.81;;;-4.09;100.00
57572;BME280;44459;43.522;24.470;2022-12-20T00:03:44;102737.53;;;-4.05;100.00
57572;BME280;44459;43.522;24.470;2022-12-20T00:06:11;102733.59;;;-4.10;100.00
57572;BME280;44459;43.522;24.470;2022-12-20T00:08:37;102735.50;;;-4.16;100.00
57572;BME280;44459;43.522;24.470;2022-12-20T00:11:05;102734.75;;;-4.15;100.00
57572;BME280;44459;43.522;24.470;2022-12-20T00:13:31;102735.19;;;-4.19;100.00
57572;BME280;44459;43.522;24.470;2022-12-20T00:16:15;102745.34;;;-4.21;100.00
57572;BME280;44459;43.522;24.470;2022-12-20T00:18:41;102736.09;;;-4.19;100.00
57572;BME280;44459;43.522;24.470;2022-12-20T00:21:10;102729.56;;;-4.24;100.00
57572;BME280;44459;43.522;24.470;2022-12-20T00:23:36;102732.69;;;-4.35;100.00
57572;BME280;44459;43.522;24.470;2022-12-20T00:26:07;102736.19;;;-4.34;100.00
57572;BME280;44459;43.522;24.470;2022-12-20T00:28:34;102734.03;;;-4.38;100.00
57572;BME280;44459;43.522;24.470;2022-12-20T00:31:00;102721.56;;;-4.42;100.00
57572;BME280;44459;43.522;24.470;2022-12-20T00:33:25;102724.94;;;-4.35;100.00
57572;BME280;44459;43.522;24.470;2022-12-20T00:35:51;102723.41;;;-4.41;100.00
57572;BME280;44459;43.522;24.470;2022-12-20T00:38:18;102711.19;;;-4.51;100.00
57572;BME280;44459;43.522;24.470;2022-12-20T00:40:44;102719.53;;;-4.53;100.00
57572;BME280;44459;43.522;24.470;2022-12-20T00:43:09;102704.34;;;-4.59;100.00
57572;BME280;44459;43.522;24.470;2022-12-20T00:45:35;102709.50;;;-4.59;100.00
57572;BME280;44459;43.522;24.470;2022-12-20T00:48:00;102706.75;;;-4.61;100.00
57572;BME280;44459;43.522;24.470;2022-12-20T00:50:26;102701.91;;;-4.58;100.00
57572;BME280;44459;43.522;24.470;2022-12-20T00:52:51;102706.00;;;-4.60;100.00
57572;BME280;44459;43.522;24.470;2022-12-20T00:55:16;102701.44;;;-4.62;100.00
57572;BME280;44459;43.522;24.470;2022-12-20T00:57:42;102703.25;;;-4.61;100.00
57572;BME280;44459;43.522;24.470;2022-12-20T01:00:08;102700.25;;;-4.57;100.00
57572;BME280;44459;43.522;24.470;2022-12-20T01:02:33;102701.34;;;-4.55;100.00
57572;BME280;44459;43.522;24.470;2022-12-20T01:04:59;102682.50;;;-4.63;100.00
57572;BME280;44459;43.522;24.470;2022-12-20T01:07:24;102684.28;;;-4.62;100.00
57572;BME280;44459;43.522;24.470;2022-12-20T01:09:50;102687.78;;;-4.61;100.00
57572;BME280;44459;43.522;24.470;2022-12-20T01:12:16;102686.09;;;-4.69;100.00
57572;BME280;44459;43.522;24.470;2022-12-20T01:14:42;102682.59;;;-4.70;100.00
57572;BME280;44459;43.522;24.470;2022-12-20T01:17:07;102687.44;;;-4.73;100.00
57572;BME280;44459;43.522;24.470;2022-12-20T01:19:33;102689.09;;;-4.73;100.00
57572;BME280;44459;43.522;24.470;2022-12-20T01:21:58;102684.69;;;-4.74;100.00
57572;BME280;44459;43.522;24.470;2022-12-20T01:24:24;102678.03;;;-4.72;100.00
57572;BME280;44459;43.522;24.470;2022-12-20T01:26:49;102681.03;;;-4.76;100.00
57572;BME280;44459;43.522;24.470;2022-12-20T01:29:15;102677.38;;;-4.78;100.00
57572;BME280;44459;43.522;24.470;2022-12-20T01:31:41;102677.38;;;-4.78;100.00
57572;BME280;44459;43.522;24.470;2022-12-20T01:34:06;102672.63;;;-4.82;100.00
57572;BME280;44459;43.522;24.470;2022-12-20T01:36:33;102667.75;;;-4.88;100.00
57572;BME280;44459;43.522;24.470;2022-12-20T01:39:02;102660.97;;;-4.87;100.00
57572;BME280;44459;43.522;24.470;2022-12-20T01:41:28;102661.69;;;-4.88;100.00
57572;BME280;44459;43.522;24.470;2022-12-20T01:44:01;102660.63;;;-4.90;100.00
57572;BME280;44459;43.522;24.470;2022-12-20T01:46:30;102656.72;;;-4.87;100.00
57572;BME280;44459;43.522;24.470;2022-12-20T01:49:07;102658.53;;;-4.86;100.00
57572;BME280;44459;43.522;24.470;2022-12-20T01:51:38;102654.47;;;-4.84;100.00
57572;BME280;44459;43.522;24.470;2022-12-20T01:54:13;102650.22;;;-4.83;100.00
57572;BME280;44459;43.522;24.470;2022-12-20T01:56:42;102652.22;;;-4.81;100.00
57572;BME280;44459;43.522;24.470;2022-12-20T01:59:09;102652.03;;;-4.82;100.00
57572;BME280;44459;43.522;24.470;2022-12-20T02:01:35;102647.00;;;-4.89;100.00
57572;BME280;44459;43.522;24.470;2022-12-20T02:04:00;102652.72;;;-4.92;100.00
57572;BME280;44459;43.522;24.470;2022-12-20T02:06:26;102644.09;;;-4.92;100.00
57572;BME280;44459;43.522;24.470;2022-12-20T02:08:53;102641.19;;;-4.95;100.00
57572;BME280;44459;43.522;24.470;2022-12-20T02:16:29;102625.00;;;-4.94;100.00
57572;BME280;44459;43.522;24.470;2022-12-20T02:30:38;102612.94;;;-4.87;100.00
57572;BME280;44459;43.522;24.470;2022-12-20T02:33:10;102608.72;;;-4.86;100.00
57572;BME280;44459;43.522;24.470;2022-12-20T02:35:37;102614.91;;;-4.84;100.00
57572;BME280;44459;43.522;24.470;2022-12-20T02:38:28;102597.63;;;-4.85;100.00
57572;BME280;44459;43.522;24.470;2022-12-20T02:41:03;102608.75;;;-4.78;100.00
57572;BME280;44459;43.522;24.470;2022-12-20T02:43:33;102595.53;;;-4.81;100.00
57572;BME280;44459;43.522;24.470;2022-12-20T02:46:19;102594.19;;;-4.77;100.00
57572;BME280;44459;43.522;24.470;2022-12-20T02:48:48;102599.19;;;-4.79;100.00
57572;BME280;44459;43.522;24.470;2022-12-20T02:51:17;102606.91;;;-4.79;100.00
57572;BME280;44459;43.522;24.470;2022-12-20T02:53:45;102602.09;;;-4.76;100.00
57572;BME280;44459;43.522;24.470;2022-12-20T02:56:15;102605.09;;;-4.80;100.00
57572;BME280;44459;43.522;24.470;2022-12-20T02:58:51;102599.34;;;-4.77;100.00
57572;BME280;44459;43.522;24.470;2022-12-20T03:01:31;102583.91;;;-4.77;100.00
57572;BME280;44459;43.522;24.470;2022-12-20T03:03:59;102592.13;;;-4.73;100.00
57572;BME280;44459;43.522;24.470;2022-12-20T03:06:25;102586.19;;;-4.72;100.00
57572;BME280;44459;43.522;24.470;2022-12-20T03:08:51;102591.44;;;-4.79;100.00
57572;BME280;44459;43.522;24.470;2022-12-20T03:11:16;102585.53;;;-4.86;100.00
57572;BME280;44459;43.522;24.470;2022-12-20T03:13:42;102588.09;;;-4.86;100.00
57572;BME280;44459;43.522;24.470;2022-12-20T03:16:08;102593.09;;;-4.88;100.00
57572;BME280;44459;43.522;24.470;2022-12-20T03:18:35;102590.81;;;-4.85;100.00
57572;BME280;44459;43.522;24.470;2022-12-20T03:21:00;102584.94;;;-4.84;100.00
57572;BME280;44459;43.522;24.470;2022-12-20T03:23:26;102583.41;;;-4.82;100.00
57572;BME280;44459;43.522;24.470;2022-12-20T03:25:51;102591.03;;;-4.75;100.00
57572;BME280;44459;43.522;24.470;2022-12-20T03:28:17;102588.75;;;-4.80;100.00
57572;BME280;44459;43.522;24.470;2022-12-20T03:30:42;102601.94;;;-4.77;100.00
57572;BME280;44459;43.522;24.470;2022-12-20T03:33:07;102603.59;;;-4.78;100.00
57572;BME280;44459;43.522;24.470;2022-12-20T03:35:33;102597.38;;;-4.80;100.00
57572;BME280;44459;43.522;24.470;2022-12-20T03:37:58;102604.50;;;-4.77;100.00
57572;BME280;44459;43.522;24.470;2022-12-20T03:40:24;102599.03;;;-4.80;100.00
57572;BME280;44459;43.522;24.470;2022-12-20T03:42:49;102595.22;;;-4.84;100.00
57572;BME280;44459;43.522;24.470;2022-12-20T03:45:15;102603.09;;;-4.82;100.00
57572;BME280;44459;43.522;24.470;2022-12-20T03:47:40;102596.16;;;-4.83;100.00
57572;BME280;44459;43.522;24.470;2022-12-20T03:50:06;102600.41;;;-4.75;100.00
57572;BME280;44459;43.522;24.470;2022-12-20T03:52:32;102587.06;;;-4.80;100.00
57572;BME280;44459;43.522;24.470;2022-12-20T03:54:57;102593.56;;;-4.83;100.00
57572;BME280;44459;43.522;24.470;2022-12-20T03:57:23;102599.03;;;-4.80;100.00
57572;BME280;44459;43.522;24.470;2022-12-20T03:59:48;102589.22;;;-4.76;100.00
57572;BME280;44459;43.522;24.470;2022-12-20T04:02:14;102574.34;;;-4.78;100.00
57572;BME280;44459;43.522;24.470;2022-12-20T04:04:39;102582.50;;;-4.82;100.00
57572;BME280;44459;43.522;24.470;2022-12-20T04:07:05;102577.53;;;-4.81;100.00
57572;BME280;44459;43.522;24.470;2022-12-20T04:09:30;102570.97;;;-4.86;100.00
57572;BME280;44459;43.522;24.470;2022-12-20T04:11:56;102564.94;;;-4.86;100.00
57572;BME280;44459;43.522;24.470;2022-12-20T04:14:21;102566.72;;;-4.85;100.00
57572;BME280;44459;43.522;24.470;2022-12-20T04:16:46;102557.53;;;-4.83;100.00
57572;BME280;44459;43.522;24.470;2022-12-20T04:19:12;102555.84;;;-4.83;100.00
57572;BME280;44459;43.522;24.470;2022-12-20T04:21:37;102550.72;;;-4.83;100.00
57572;BME280;44459;43.522;24.470;2022-12-20T04:24:03;102556.16;;;-4.80;100.00
57572;BME280;44459;43.522;24.470;2022-12-20T04:26:29;102556.63;;;-4.75;100.00
57572;BME280;44459;43.522;24.470;2022-12-20T04:28:55;102547.84;;;-4.77;100.00
57572;BME280;44459;43.522;24.470;2022-12-20T04:31:21;102543.31;;;-4.71;100.00
57572;BME280;44459;43.522;24.470;2022-12-20T04:33:46;102536.69;;;-4.69;100.00
57572;BME280;44459;43.522;24.470;2022-12-20T04:36:13;102541.41;;;-4.65;100.00
57572;BME280;44459;43.522;24.470;2022-12-20T04:38:38;102541.41;;;-4.65;100.00
57572;BME280;44459;43.522;24.470;2022-12-20T04:41:04;102540.78;;;-4.63;100.00
57572;BME280;44459;43.522;24.470;2022-12-20T04:43:30;102542.44;;;-4.63;100.00
57572;BME280;44459;43.522;24.470;2022-12-20T04:45:56;102545.47;;;-4.67;100.00
57572;BME280;44459;43.522;24.470;2022-12-20T04:48:23;102546.97;;;-4.69;100.00
57572;BME280;44459;43.522;24.470;2022-12-20T04:50:52;102553.47;;;-4.73;100.00
57572;BME280;44459;43.522;24.470;2022-12-20T04:53:17;102549.88;;;-4.66;100.00
57572;BME280;44459;43.522;24.470;2022-12-20T04:56:02;102554.47;;;-4.55;100.00
57572;BME280;44459;43.522;24.470;2022-12-20T04:58:28;102551.91;;;-4.46;100.00
57572;BME280;44459;43.522;24.470;2022-12-20T05:00:53;102548.16;;;-4.41;100.00
57572;BME280;44459;43.522;24.470;2022-12-20T05:03:20;102559.56;;;-4.31;100.00
57572;BME280;44459;43.522;24.470;2022-12-20T05:05:46;102560.66;;;-4.20;100.00
57572;BME280;44459;43.522;24.470;2022-12-20T05:08:12;102559.59;;;-4.14;100.00
57572;BME280;44459;43.522;24.470;2022-12-20T05:10:38;102561.25;;;-4.06;100.00
57572;BME280;44459;43.522;24.470;2022-12-20T05:13:03;102556.09;;;-4.06;100.00
57572;BME280;44459;43.522;24.470;2022-12-20T05:15:28;102553.25;;;-4.00;100.00
57572;BME280;44459;43.522;24.470;2022-12-20T05:17:54;102547.16;;;-4.00;100.00
57572;BME280;44459;43.522;24.470;2022-12-20T05:20:27;102550.34;;;-4.12;100.00
57572;BME280;44459;43.522;24.470;2022-12-20T05:22:53;102544.56;;;-4.09;100.00
57572;BME280;44459;43.522;24.470;2022-12-20T05:25:43;102537.56;;;-4.19;100.00
57572;BME280;44459;43.522;24.470;2022-12-20T05:28:29;102541.41;;;-4.07;100.00
57572;BME280;44459;43.522;24.470;2022-12-20T05:30:54;102542.00;;;-4.00;100.00
57572;BME280;44459;43.522;24.470;2022-12-20T05:33:20;102535.31;;;-3.98;100.00
57572;BME280;44459;43.522;24.470;2022-12-20T05:35:46;102531.41;;;-4.03;100.00
57572;BME280;44459;43.522;24.470;2022-12-20T05:38:11;102544.91;;;-3.97;100.00
57572;BME280;44459;43.522;24.470;2022-12-20T05:40:38;102535.97;;;-3.92;100.00
57572;BME280;44459;43.522;24.470;2022-12-20T05:43:04;102534.28;;;-3.83;100.00
57572;BME280;44459;43.522;24.470;2022-12-20T05:45:31;102535.34;;;-3.73;100.00
57572;BME280;44459;43.522;24.470;2022-12-20T05:47:56;102533.69;;;-3.72;100.00
57572;BME280;44459;43.522;24.470;2022-12-20T05:50:22;102539.78;;;-3.72;100.00
57572;BME280;44459;43.522;24.470;2022-12-20T05:52:47;102539.31;;;-3.76;100.00
57572;BME280;44459;43.522;24.470;2022-12-20T05:55:12;102529.44;;;-3.80;100.00
57572;BME280;44459;43.522;24.470;2022-12-20T05:57:38;102535.47;;;-3.88;100.00
57572;BME280;44459;43.522;24.470;2022-12-20T06:00:06;102530.19;;;-3.81;100.00
57572;BME280;44459;43.522;24.470;2022-12-20T06:02:31;102537.91;;;-3.81;100.00
57572;BME280;44459;43.522;24.470;2022-12-20T06:04:57;102537.47;;;-3.77;100.00
57572;BME280;44459;43.522;24.470;2022-12-20T06:07:23;102530.31;;;-3.88;100.00
57572;BME280;44459;43.522;24.470;2022-12-20T06:09:49;102532.03;;;-3.89;100.00
57572;BME280;44459;43.522;24.470;2022-12-20T06:12:14;102521.25;;;-3.93;100.00
57572;BME280;44459;43.522;24.470;2022-12-20T06:14:40;102533.06;;;-3.95;100.00
57572;BME280;44459;43.522;24.470;2022-12-20T06:17:05;102533.06;;;-3.95;100.00
57572;BME280;44459;43.522;24.470;2022-12-20T06:19:31;102527.28;;;-3.84;100.00
57572;BME280;44459;43.522;24.470;2022-12-20T06:21:56;102531.09;;;-3.81;100.00
57572;BME280;44459;43.522;24.470;2022-12-20T06:24:22;102534.91;;;-3.86;100.00
57572;BME280;44459;43.522;24.470;2022-12-20T06:26:50;102536.69;;;-3.85;100.00
57572;BME280;44459;43.522;24.470;2022-12-20T06:29:15;102536.13;;;-3.82;100.00
57572;BME280;44459;43.522;24.470;2022-12-20T06:31:42;102529.75;;;-3.86;100.00
57572;BME280;44459;43.522;24.470;2022-12-20T06:34:08;102531.25;;;-3.96;100.00
57572;BME280;44459;43.522;24.470;2022-12-20T06:36:33;102533.69;;;-3.89;100.00
57572;BME280;44459;43.522;24.470;2022-12-20T06:38:59;102530.97;;;-3.82;100.00
57572;BME280;44459;43.522;24.470;2022-12-20T06:41:25;102537.47;;;-3.77;100.00
57572;BME280;44459;43.522;24.470;2022-12-20T06:43:50;102535.22;;;-3.83;100.00
57572;BME280;44459;43.522;24.470;2022-12-20T06:46:16;102536.41;;;-3.79;100.00
57572;BME280;44459;43.522;24.470;2022-12-20T06:48:41;102530.97;;;-3.82;100.00
57572;BME280;44459;43.522;24.470;2022-12-20T06:51:07;102528.38;;;-3.74;100.00
57572;BME280;44459;43.522;24.470;2022-12-20T06:53:32;102525.34;;;-3.87;100.00
57572;BME280;44459;43.522;24.470;2022-12-20T06:55:57;102527.44;;;-3.74;100.00
57572;BME280;44459;43.522;24.470;2022-12-20T06:58:23;102527.31;;;-3.76;100.00
57572;BME280;44459;43.522;24.470;2022-12-20T07:00:48;102526.41;;;-3.76;100.00
57572;BME280;44459;43.522;24.470;2022-12-20T07:03:14;102520.31;;;-3.60;100.00
57572;BME280;44459;43.522;24.470;2022-12-20T07:05:39;102522.78;;;-3.61;100.00
57572;BME280;44459;43.522;24.470;2022-12-20T07:08:05;102515.59;;;-3.64;100.00
57572;BME280;44459;43.522;24.470;2022-12-20T07:10:36;102523.38;;;-3.55;100.00
57572;BME280;44459;43.522;24.470;2022-12-20T07:13:01;102522.13;;;-3.41;100.00
57572;BME280;44459;43.522;24.470;2022-12-20T07:15:27;102514.53;;;-3.31;100.00
57572;BME280;44459;43.522;24.470;2022-12-20T07:17:52;102513.78;;;-3.39;100.00
57572;BME280;44459;43.522;24.470;2022-12-20T07:20:18;102514.97;;;-3.35;100.00
57572;BME280;44459;43.522;24.470;2022-12-20T07:22:46;102507.22;;;-3.35;100.00
57572;BME280;44459;43.522;24.470;2022-12-20T07:25:12;102511.19;;;-3.30;99.82
57572;BME280;44459;43.522;24.470;2022-12-20T07:27:38;102500.69;;;-3.32;99.73
57572;BME280;44459;43.522;24.470;2022-12-20T07:30:04;102499.19;;;-3.38;100.00
57572;BME280;44459;43.522;24.470;2022-12-20T07:32:30;102501.78;;;-3.38;100.00
57572;BME280;44459;43.522;24.470;2022-12-20T07:34:55;102503.59;;;-3.37;100.00
57572;BME280;44459;43.522;24.470;2022-12-20T07:37:21;102505.72;;;-3.33;100.00
57572;BME280;44459;43.522;24.470;2022-12-20T07:39:46;102508.16;;;-3.35;100.00
57572;BME280;44459;43.522;24.470;2022-12-20T07:42:11;102503.31;;;-3.40;100.00
57572;BME280;44459;43.522;24.470;2022-12-20T07:44:37;102511.78;;;-3.33;100.00
57572;BME280;44459;43.522;24.470;2022-12-20T07:47:02;102507.84;;;-3.38;100.00
57572;BME280;44459;43.522;24.470;2022-12-20T07:49:28;102494.53;;;-3.51;100.00
57572;BME280;44459;43.522;24.470;2022-12-20T07:51:56;102502.41;;;-3.49;100.00
57572;BME280;44459;43.522;24.470;2022-12-20T07:54:30;102504.03;;;-3.33;100.00
57572;BME280;44459;43.522;24.470;2022-12-20T07:56:59;102511.94;;;-3.31;100.00
57572;BME280;44459;43.522;24.470;2022-12-20T07:59:30;102507.69;;;-3.31;100.00
57572;BME280;44459;43.522;24.470;2022-12-20T08:02:00;102512.28;;;-3.37;100.00
57572;BME280;44459;43.522;24.470;2022-12-20T08:04:26;102502.53;;;-3.39;100.00
57572;BME280;44459;43.522;24.470;2022-12-20T08:06:54;102501.44;;;-3.33;100.00
57572;BME280;44459;43.522;24.470;2022-12-20T08:09:23;102491.78;;;-3.44;100.00
57572;BME280;44459;43.522;24.470;2022-12-20T08:11:49;102488.25;;;-3.36;100.00
57572;BME280;44459;43.522;24.470;2022-12-20T08:14:16;102497.19;;;-3.24;100.00
57572;BME280;44459;43.522;24.470;2022-12-20T08:16:42;102485.66;;;-3.27;100.00
57572;BME280;44459;43.522;24.470;2022-12-20T08:19:08;102488.09;;;-3.29;100.00
57572;BME280;44459;43.522;24.470;2022-12-20T08:21:34;102494.03;;;-3.30;100.00
57572;BME280;44459;43.522;24.470;2022-12-20T08:23:59;102489.00;;;-3.28;100.00
57572;BME280;44459;43.522;24.470;2022-12-20T08:26:25;102480.03;;;-3.23;100.00
57572;BME280;44459;43.522;24.470;2022-12-20T08:28:50;102478.16;;;-3.16;100.00
57572;BME280;44459;43.522;24.470;2022-12-20T08:31:16;102479.06;;;-3.07;100.00
57572;BME280;44459;43.522;24.470;2022-12-20T08:33:41;102484.63;;;-2.85;100.00
57572;BME280;44459;43.522;24.470;2022-12-20T08:36:09;102477.06;;;-3.00;99.27
57572;BME280;44459;43.522;24.470;2022-12-20T08:38:35;102485.25;;;-2.96;99.34
57572;BME280;44459;43.522;24.470;2022-12-20T08:41:08;102480.38;;;-2.93;99.39
57572;BME280;44459;43.522;24.470;2022-12-20T08:43:35;102482.34;;;-2.90;98.89
57572;BME280;44459;43.522;24.470;2022-12-20T08:46:01;102467.31;;;-2.94;99.31
57572;BME280;44459;43.522;24.470;2022-12-20T08:48:27;102474.75;;;-2.89;98.76
57572;BME280;44459;43.522;24.470;2022-12-20T08:50:57;102470.25;;;-2.73;98.81
57572;BME280;44459;43.522;24.470;2022-12-20T08:53:24;102473.22;;;-2.60;98.66
57572;BME280;44459;43.522;24.470;2022-12-20T08:55:49;102458.78;;;-2.58;97.57
57572;BME280;44459;43.522;24.470;2022-12-20T08:58:15;102458.63;;;-2.59;96.68
57572;BME280;44459;43.522;24.470;2022-12-20T09:00:40;102456.28;;;-2.75;97.00
57572;BME280;44459;43.522;24.470;2022-12-20T09:03:06;102451.97;;;-2.93;97.10
57572;BME280;44459;43.522;24.470;2022-12-20T09:05:32;102444.75;;;-2.78;98.46
57572;BME280;44459;43.522;24.470;2022-12-20T09:07:58;102439.78;;;-2.85;96.34
57572;BME280;44459;43.522;24.470;2022-12-20T09:10:23;102434.41;;;-2.78;95.35
57572;BME280;44459;43.522;24.470;2022-12-20T09:12:49;102424.41;;;-2.84;95.51
57572;BME280;44459;43.522;24.470;2022-12-20T09:15:14;102431.56;;;-2.81;97.71
57572;BME280;44459;43.522;24.470;2022-12-20T09:17:40;102437.78;;;-2.88;96.27
57572;BME280;44459;43.522;24.470;2022-12-20T09:20:06;102424.41;;;-2.84;96.11
57572;BME280;44459;43.522;24.470;2022-12-20T09:22:31;102424.47;;;-2.92;95.88
57572;BME280;44459;43.522;24.470;2022-12-20T09:24:56;102422.69;;;-3.02;97.56
57572;BME280;44459;43.522;24.470;2022-12-20T09:27:22;102418.41;;;-3.01;96.44
57572;BME280;44459;43.522;24.470;2022-12-20T09:29:48;102413.03;;;-2.86;95.82
57572;BME280;44459;43.522;24.470;2022-12-20T09:32:13;102403.16;;;-2.90;96.73
57572;BME280;44459;43.522;24.470;2022-12-20T09:34:38;102408.81;;;-2.94;97.68
57572;BME280;44459;43.522;24.470;2022-12-20T09:37:04;102401.41;;;-3.08;96.39
57572;BME280;44459;43.522;24.470;2022-12-20T09:39:30;102400.19;;;-3.03;96.19
57572;BME280;44459;43.522;24.470;2022-12-20T09:41:56;102399.00;;;-2.79;98.11
57572;BME280;44459;43.522;24.470;2022-12-20T09:44:31;102395.47;;;-2.71;98.98
57572;BME280;44459;43.522;24.470;2022-12-20T09:47:03;102388.28;;;-2.65;97.32
57572;BME280;44459;43.522;24.470;2022-12-20T09:49:35;102371.22;;;-2.63;98.27
57572;BME280;44459;43.522;24.470;2022-12-20T09:54:49;102362.50;;;-2.55;97.32
57572;BME280;44459;43.522;24.470;2022-12-20T09:57:43;102359.63;;;-2.39;96.60
57572;BME280;44459;43.522;24.470;2022-12-20T10:00:16;102344.97;;;-2.49;95.85
57572;BME280;44459;43.522;24.470;2022-12-20T10:02:43;102343.66;;;-2.54;96.42
57572;BME280;44459;43.522;24.470;2022-12-20T10:05:24;102333.78;;;-2.58;96.02
57572;BME280;44459;43.522;24.470;2022-12-20T10:18:43;102317.53;;;-2.57;97.37
57572;BME280;44459;43.522;24.470;2022-12-20T10:24:02;102313.13;;;-2.58;96.59
57572;BME280;44459;43.522;24.470;2022-12-20T10:26:30;102303.25;;;-2.62;96.48
57572;BME280;44459;43.522;24.470;2022-12-20T10:28:56;102294.09;;;-2.59;97.19
57572;BME280;44459;43.522;24.470;2022-12-20T10:31:22;102294.94;;;-2.49;97.59
57572;BME280;44459;43.522;24.470;2022-12-20T10:33:48;102298.00;;;-2.35;97.94
57572;BME280;44459;43.522;24.470;2022-12-20T10:36:17;102298.06;;;-2.25;96.21
57572;BME280;44459;43.522;24.470;2022-12-20T10:38:45;102283.00;;;-2.10;96.35
57572;BME280;44459;43.522;24.470;2022-12-20T10:41:16;102273.75;;;-1.98;94.76
57572;BME280;44459;43.522;24.470;2022-12-20T10:43:45;102269.19;;;-2.00;95.26
57572;BME280;44459;43.522;24.470;2022-12-20T10:46:13;102262.84;;;-2.04;95.42
57572;BME280;44459;43.522;24.470;2022-12-20T10:48:42;102264.94;;;-2.00;94.72
57572;BME280;44459;43.522;24.470;2022-12-20T10:53:49;102266.00;;;-1.98;94.64
57572;BME280;44459;43.522;24.470;2022-12-20T10:56:22;102254.75;;;-1.88;95.09
57572;BME280;44459;43.522;24.470;2022-12-20T11:01:42;102247.28;;;-2.14;95.96
57572;BME280;44459;43.522;24.470;2022-12-20T11:04:28;102248.59;;;-2.38;96.04
57572;BME280;44459;43.522;24.470;2022-12-20T11:06:54;102244.06;;;-2.40;97.67
57572;BME280;44459;43.522;24.470;2022-12-20T11:09:30;102244.75;;;-2.33;97.41
57572;BME280;44459;43.522;24.470;2022-12-20T11:12:14;102240.78;;;-2.29;98.73
57572;BME280;44459;43.522;24.470;2022-12-20T11:14:41;102239.16;;;-2.37;97.74
57572;BME280;44459;43.522;24.470;2022-12-20T11:19:46;102228.81;;;-2.37;98.36
57572;BME280;44459;43.522;24.470;2022-12-20T11:22:35;102235.19;;;-2.34;98.60
57572;BME280;44459;43.522;24.470;2022-12-20T11:34:02;102217.75;;;-2.26;97.85
57572;BME280;44459;43.522;24.470;2022-12-20T11:37:24;102215.00;;;-1.99;97.08
57572;BME280;44459;43.522;24.470;2022-12-20T11:39:31;102207.50;;;-1.96;96.29
57572;BME280;44459;43.522;24.470;2022-12-20T11:42:08;102203.75;;;-1.99;96.80
57572;BME280;44459;43.522;24.470;2022-12-20T11:47:38;102203.63;;;-2.40;97.14
57572;BME280;44459;43.522;24.470;2022-12-20T11:50:31;102198.09;;;-2.24;98.75
57572;BME280;44459;43.522;24.470;2022-12-20T11:53:04;102197.84;;;-2.27;97.58
57572;BME280;44459;43.522;24.470;2022-12-20T11:55:35;102192.94;;;-2.24;98.15
57572;BME280;44459;43.522;24.470;2022-12-20T12:00:35;102190.34;;;-2.53;97.95
57572;BME280;44459;43.522;24.470;2022-12-20T12:03:12;102189.00;;;-2.68;98.98
57572;BME280;44459;43.522;24.470;2022-12-20T12:05:53;102177.91;;;-2.86;99.47
57572;BME280;44459;43.522;24.470;2022-12-20T12:08:24;102166.28;;;-2.81;100.00
57572;BME280;44459;43.522;24.470;2022-12-20T12:11:16;102176.25;;;-2.57;99.44
57572;BME280;44459;43.522;24.470;2022-12-20T12:13:43;102177.72;;;-2.50;98.94
57572;BME280;44459;43.522;24.470;2022-12-20T12:18:47;102165.19;;;-2.45;98.40
57572;BME280;44459;43.522;24.470;2022-12-20T12:26:39;102154.81;;;-2.17;96.07
57572;BME280;44459;43.522;24.470;2022-12-20T12:37:20;102154.75;;;-1.88;96.17
57572;BME280;44459;43.522;24.470;2022-12-20T12:42:56;102150.50;;;-1.67;95.00
57572;BME280;44459;43.522;24.470;2022-12-20T12:45:48;102147.88;;;-1.87;94.27
57572;BME280;44459;43.522;24.470;2022-12-20T12:50:55;102145.25;;;-1.97;95.91
57572;BME280;44459;43.522;24.470;2022-12-20T12:53:36;102150.59;;;-1.96;95.42
57572;BME280;44459;43.522;24.470;2022-12-20T13:12:58;102128.88;;;-1.78;95.86
57572;BME280;44459;43.522;24.470;2022-12-20T13:17:58;102115.78;;;-1.69;95.22
57572;BME280;44459;43.522;24.470;2022-12-20T13:20:32;102118.53;;;-1.78;93.56
57572;BME280;44459;43.522;24.470;2022-12-20T13:25:34;102107.78;;;-1.92;95.28
57572;BME280;44459;43.522;24.470;2022-12-20T13:30:42;102107.63;;;-1.94;94.97
57572;BME280;44459;43.522;24.470;2022-12-20T13:36:33;102096.25;;;-1.86;95.65
57572;BME280;44459;43.522;24.470;2022-12-20T13:39:46;102098.69;;;-1.97;95.50
57572;BME280;44459;43.522;24.470;2022-12-20T13:41:47;102096.34;;;-2.15;96.03
57572;BME280;44459;43.522;24.470;2022-12-20T13:49:27;102085.31;;;-2.32;97.40
57572;BME280;44459;43.522;24.470;2022-12-20T13:54:59;102086.56;;;-1.98;97.41
57572;BME280;44459;43.522;24.470;2022-12-20T13:57:40;102074.38;;;-1.89;96.49
57572;BME280;44459;43.522;24.470;2022-12-20T14:00:14;102075.03;;;-1.82;95.85
57572;BME280;44459;43.522;24.470;2022-12-20T14:02:41;102078.78;;;-1.78;95.37
57572;BME280;44459;43.522;24.470;2022-12-20T14:05:25;102079.03;;;-1.75;95.06
57572;BME280;44459;43.522;24.470;2022-12-20T14:08:09;102073.38;;;-1.91;94.99
57572;BME280;44459;43.522;24.470;2022-12-20T14:10:38;102064.28;;;-1.96;94.78
57572;BME280;44459;43.522;24.470;2022-12-20T14:13:20;102079.72;;;-1.88;95.11
57572;BME280;44459;43.522;24.470;2022-12-20T14:15:47;102061.84;;;-1.95;94.53
57572;BME280;44459;43.522;24.470;2022-12-20T14:18:23;102068.81;;;-1.94;95.34
57572;BME280;44459;43.522;24.470;2022-12-20T14:21:00;102063.63;;;-1.84;95.74
57572;BME280;44459;43.522;24.470;2022-12-20T14:23:40;102063.53;;;-1.85;94.81
57572;BME280;44459;43.522;24.470;2022-12-20T14:26:11;102048.66;;;-1.78;95.21
57572;BME280;44459;43.522;24.470;2022-12-20T14:28:38;102038.28;;;-1.68;94.60
57572;BME280;44459;43.522;24.470;2022-12-20T14:31:19;102046.03;;;-1.68;94.06
57572;BME280;44459;43.522;24.470;2022-12-20T14:33:46;102055.34;;;-1.60;93.87